Time;durP1;ratioP1;P1;durP2;ratioP2;P2;SDS_P1;SDS_P2;PMS_P1;PMS_P2;Temp;Humidity;BMP_temperature;BMP_pressure;BME280_temperature;BME280_humidity;BME280_pressure;Samples;Min_cycle;Max_cycle;Signal;HPM_P1;HPM_P2
2021/09/09 00:01:52;;;;;;;7.10;3.08;;;20.90;99.90;;;;;;4952567;28;20027;-88
2021/09/09 00:04:17;;;;;;;7.28;3.25;;;20.80;99.90;;;;;;4952868;28;20028;-88
2021/09/09 00:06:43;;;;;;;7.75;3.25;;;20.80;99.90;;;;;;4952795;28;20043;-88
2021/09/09 00:09:09;;;;;;;6.88;2.90;;;20.90;99.90;;;;;;4952645;28;20085;-88
2021/09/09 00:11:34;;;;;;;4.93;2.50;;;20.90;99.90;;;;;;4952542;28;20499;-88
2021/09/09 00:14:00;;;;;;;9.38;3.00;;;21.00;99.90;;;;;;4967260;28;20451;-87
2021/09/09 00:16:26;;;;;;;4.40;2.65;;;21.00;99.90;;;;;;4934974;29;20038;-88
2021/09/09 00:18:51;;;;;;;4.75;2.50;;;21.10;99.90;;;;;;4952475;28;20023;-87
2021/09/09 00:21:17;;;;;;;4.65;2.42;;;21.10;99.90;;;;;;4952341;28;20251;-87
2021/09/09 00:23:43;;;;;;;5.68;2.58;;;21.20;99.90;;;;;;4952957;28;20059;-88
2021/09/09 00:26:08;;;;;;;6.10;2.60;;;21.10;99.90;;;;;;4934929;28;20406;-88
2021/09/09 00:28:34;;;;;;;6.45;2.55;;;21.00;99.90;;;;;;4952476;28;20079;-87
2021/09/09 00:31:00;;;;;;;10.75;2.80;;;20.90;99.90;;;;;;4952278;28;20023;-87
2021/09/09 00:33:26;;;;;;;7.53;2.45;;;20.90;99.90;;;;;;4952109;28;20035;-88
2021/09/09 00:35:51;;;;;;;5.97;2.30;;;21.00;99.90;;;;;;4952285;28;20051;-88
2021/09/09 00:38:17;;;;;;;5.50;2.30;;;20.90;99.90;;;;;;4952218;28;20503;-87
2021/09/09 00:40:43;;;;;;;5.60;1.88;;;20.90;99.90;;;;;;4952685;28;20469;-88
2021/09/09 00:43:09;;;;;;;3.65;1.95;;;20.80;99.90;;;;;;4951838;28;20058;-88
2021/09/09 00:45:34;;;;;;;6.63;1.80;;;20.80;99.90;;;;;;4952303;28;20489;-88
2021/09/09 00:48:00;;;;;;;8.50;2.20;;;20.80;99.90;;;;;;4952224;28;20050;-87
2021/09/09 00:50:26;;;;;;;3.55;1.90;;;20.80;99.90;;;;;;4934674;29;20542;-88
2021/09/09 00:52:52;;;;;;;5.47;1.63;;;20.80;99.90;;;;;;4951924;28;20031;-88
2021/09/09 00:55:18;;;;;;;3.15;1.38;;;20.80;99.90;;;;;;4951866;28;20098;-87
2021/09/09 00:57:45;;;;;;;3.92;1.73;;;20.90;99.90;;;;;;4952125;28;20027;-88
2021/09/09 01:00:12;;;;;;;3.17;1.30;;;20.90;99.90;;;;;;4934388;28;20131;-88
2021/09/09 01:02:38;;;;;;;3.00;1.50;;;21.00;99.90;;;;;;4934737;29;20114;-87
2021/09/09 01:05:05;;;;;;;5.70;1.90;;;21.00;99.90;;;;;;4931296;29;20415;-87
2021/09/09 01:07:31;;;;;;;4.18;1.60;;;21.00;99.90;;;;;;4948167;28;20119;-88
2021/09/09 01:09:57;;;;;;;6.28;1.80;;;21.00;99.90;;;;;;4952168;28;20383;-88
2021/09/09 01:12:23;;;;;;;6.13;2.53;;;21.00;99.90;;;;;;4934512;28;20030;-88
2021/09/09 01:14:49;;;;;;;4.15;2.10;;;20.90;99.90;;;;;;4951825;28;20027;-88
2021/09/09 01:17:15;;;;;;;5.10;2.10;;;20.90;99.90;;;;;;4952120;28;20027;-88
2021/09/09 01:19:40;;;;;;;7.38;2.25;;;21.00;99.90;;;;;;4951565;28;20403;-88
2021/09/09 01:22:06;;;;;;;3.78;1.58;;;21.00;99.90;;;;;;4951706;28;20046;-88
2021/09/09 01:24:32;;;;;;;4.15;1.92;;;21.10;99.90;;;;;;4951522;28;20407;-88
2021/09/09 01:27:04;;;;;;;4.22;1.92;;;21.20;99.90;;;;;;4951655;28;20102;-88
2021/09/09 01:29:33;;;;;;;2.15;1.45;;;21.20;99.90;;;;;;4951762;28;20027;-86
2021/09/09 01:31:59;;;;;;;4.72;1.50;;;21.20;99.90;;;;;;4950334;28;20365;-87
2021/09/09 01:34:26;;;;;;;4.15;1.52;;;21.30;99.90;;;;;;4951750;28;20275;-87
2021/09/09 01:36:53;;;;;;;2.95;1.50;;;21.30;99.90;;;;;;4951553;28;20081;-87
2021/09/09 01:39:19;;;;;;;2.58;1.40;;;21.40;99.90;;;;;;4951387;28;20082;-87
2021/09/09 01:41:48;;;;;;;3.75;1.63;;;21.40;99.90;;;;;;4951099;28;20019;-87
2021/09/09 01:44:14;;;;;;;4.35;1.35;;;21.40;99.90;;;;;;4934272;29;20062;-88
2021/09/09 01:46:40;;;;;;;2.47;1.60;;;21.40;99.90;;;;;;4951585;28;20071;-88
2021/09/09 01:49:05;;;;;;;3.13;1.48;;;21.30;99.90;;;;;;4951620;28;20030;-87
2021/09/09 01:51:31;;;;;;;2.58;1.48;;;21.30;99.90;;;;;;4951710;28;20031;-87
2021/09/09 01:53:57;;;;;;;4.60;1.52;;;21.40;99.90;;;;;;4966198;28;20042;-87
2021/09/09 01:56:23;;;;;;;5.97;1.60;;;21.40;99.90;;;;;;4950113;28;20028;-87
2021/09/09 01:58:49;;;;;;;3.55;1.88;;;21.40;99.90;;;;;;4951235;28;20041;-87
2021/09/09 02:01:16;;;;;;;3.78;1.60;;;21.40;99.90;;;;;;4951235;28;20032;-88
2021/09/09 02:03:42;;;;;;;4.70;1.80;;;21.40;99.90;;;;;;4949950;28;20031;-88
2021/09/09 02:06:07;;;;;;;3.55;1.30;;;21.50;99.90;;;;;;4951257;28;20102;-88
2021/09/09 02:08:33;;;;;;;3.97;1.83;;;21.50;99.90;;;;;;4934411;29;20035;-87
2021/09/09 02:10:59;;;;;;;3.80;1.42;;;21.50;99.90;;;;;;4952499;28;20349;-87
2021/09/09 02:13:25;;;;;;;7.15;2.00;;;21.50;99.90;;;;;;4954882;28;20030;-88
2021/09/09 02:15:50;;;;;;;3.97;2.30;;;21.40;99.90;;;;;;4954535;28;20227;-88
2021/09/09 02:18:16;;;;;;;6.22;1.70;;;21.40;99.90;;;;;;4953430;28;20047;-87
2021/09/09 02:20:42;;;;;;;4.13;1.60;;;21.30;99.90;;;;;;4954738;28;20034;-88
2021/09/09 02:23:07;;;;;;;5.32;1.70;;;21.40;99.90;;;;;;4954670;28;20081;-88
2021/09/09 02:25:33;;;;;;;5.68;1.80;;;21.40;99.90;;;;;;4954812;28;20023;-88
2021/09/09 02:27:59;;;;;;;4.15;1.77;;;21.40;99.90;;;;;;4954504;28;20074;-88
2021/09/09 02:30:26;;;;;;;4.43;1.88;;;21.40;99.90;;;;;;4954674;28;20046;-88
2021/09/09 02:32:52;;;;;;;4.50;1.65;;;21.40;99.90;;;;;;4954400;28;20037;-87
2021/09/09 02:35:18;;;;;;;5.20;1.65;;;21.40;99.90;;;;;;4953295;28;20475;-87
2021/09/09 02:37:44;;;;;;;5.07;2.00;;;21.30;99.90;;;;;;4954404;28;20431;-88
2021/09/09 02:40:12;;;;;;;5.68;1.75;;;21.30;99.90;;;;;;4936950;29;20023;-87
2021/09/09 02:42:38;;;;;;;3.70;1.83;;;21.30;99.90;;;;;;4933969;29;20138;-88
2021/09/09 02:45:05;;;;;;;4.80;2.00;;;21.30;99.90;;;;;;4951967;28;20015;-88
2021/09/09 02:47:31;;;;;;;5.05;1.52;;;21.30;99.90;;;;;;4954266;28;20082;-87
2021/09/09 02:49:56;;;;;;;4.65;1.85;;;21.30;99.90;;;;;;4954186;28;20023;-87
2021/09/09 02:52:22;;;;;;;4.20;2.00;;;21.30;99.90;;;;;;4954229;28;20038;-87
2021/09/09 02:54:48;;;;;;;5.28;1.98;;;21.20;99.90;;;;;;4954045;28;20026;-88
2021/09/09 02:57:13;;;;;;;5.35;2.00;;;21.20;99.90;;;;;;4953971;28;20508;-88
2021/09/09 02:59:39;;;;;;;6.18;1.80;;;21.30;99.90;;;;;;4953999;28;20106;-87
2021/09/09 03:02:05;;;;;;;7.45;1.95;;;21.10;99.90;;;;;;4954027;28;20042;-87
2021/09/09 03:04:30;;;;;;;8.57;2.25;;;21.00;99.90;;;;;;4953930;28;20055;-88
2021/09/09 03:06:56;;;;;;;7.03;2.00;;;20.90;99.90;;;;;;4955744;28;20110;-88
2021/09/09 03:09:22;;;;;;;7.93;2.55;;;20.90;99.90;;;;;;4953683;28;20023;-87
2021/09/09 03:11:48;;;;;;;5.53;2.10;;;20.90;99.90;;;;;;4942468;29;20031;-87
2021/09/09 03:14:14;;;;;;;6.18;2.30;;;21.00;99.90;;;;;;4953738;28;20047;-87
2021/09/09 03:16:39;;;;;;;7.47;2.22;;;21.00;99.90;;;;;;4953589;28;20031;-88
2021/09/09 03:19:05;;;;;;;4.95;2.00;;;21.00;99.90;;;;;;4953758;28;20019;-87
2021/09/09 03:21:31;;;;;;;6.15;2.28;;;21.10;99.90;;;;;;4953105;28;20439;-88
2021/09/09 03:23:56;;;;;;;9.10;2.08;;;21.10;99.90;;;;;;4935951;29;20168;-88
2021/09/09 03:26:22;;;;;;;6.40;1.92;;;21.10;99.90;;;;;;4953615;28;20511;-88
2021/09/09 03:28:48;;;;;;;8.98;2.00;;;21.10;99.90;;;;;;4953549;28;20075;-88
2021/09/09 03:31:13;;;;;;;6.32;2.10;;;21.00;99.90;;;;;;4935926;28;20026;-87
2021/09/09 03:33:39;;;;;;;5.65;2.13;;;21.00;99.90;;;;;;4953419;28;20055;-88
2021/09/09 03:36:05;;;;;;;6.95;1.70;;;21.00;99.90;;;;;;4953350;28;20026;-87
2021/09/09 03:38:31;;;;;;;8.43;1.75;;;21.00;99.90;;;;;;4936002;29;20037;-87
2021/09/09 03:40:56;;;;;;;5.53;1.90;;;21.00;99.90;;;;;;4953372;28;20035;-88
2021/09/09 03:43:22;;;;;;;4.57;1.90;;;21.00;99.90;;;;;;4967747;28;20047;-88
2021/09/09 03:45:47;;;;;;;3.63;1.77;;;21.00;99.90;;;;;;4953077;28;20106;-88
2021/09/09 03:48:13;;;;;;;6.18;1.90;;;21.10;99.90;;;;;;4935537;28;20083;-87
2021/09/09 03:50:39;;;;;;;8.65;1.95;;;21.10;99.90;;;;;;4953120;28;20530;-87
2021/09/09 03:53:05;;;;;;;6.28;1.75;;;21.10;99.90;;;;;;4952184;28;20028;-88
2021/09/09 03:55:31;;;;;;;7.13;1.95;;;21.00;99.90;;;;;;4952957;28;20389;-88
2021/09/09 03:57:56;;;;;;;5.53;1.70;;;21.00;99.90;;;;;;4953066;28;20026;-88
2021/09/09 04:00:22;;;;;;;8.20;2.25;;;21.10;99.90;;;;;;4953098;28;20019;-88
2021/09/09 04:02:48;;;;;;;4.25;1.50;;;21.10;99.90;;;;;;4952968;28;20110;-87
2021/09/09 04:05:13;;;;;;;6.40;2.22;;;21.00;99.90;;;;;;4952725;28;20571;-87
2021/09/09 04:07:42;;;;;;;8.68;2.00;;;21.10;99.90;;;;;;4952443;28;20041;-87
2021/09/09 04:10:08;;;;;;;7.53;1.90;;;21.10;99.90;;;;;;4952768;29;20027;-88
2021/09/09 04:12:34;;;;;;;7.65;2.28;;;21.10;99.90;;;;;;4952403;28;20027;-88
2021/09/09 04:15:02;;;;;;;6.85;1.90;;;21.10;99.90;;;;;;4935216;29;20503;-88
2021/09/09 04:17:28;;;;;;;5.05;1.70;;;21.10;99.90;;;;;;4932084;28;20044;-88
2021/09/09 04:19:54;;;;;;;9.90;2.38;;;21.00;99.90;;;;;;4952834;28;20016;-88
2021/09/09 04:22:20;;;;;;;5.68;1.92;;;21.00;99.90;;;;;;4952521;28;20051;-88
2021/09/09 04:24:46;;;;;;;7.32;1.95;;;21.10;99.90;;;;;;4952331;28;20027;-88
2021/09/09 04:27:11;;;;;;;7.85;1.80;;;21.10;99.90;;;;;;4952401;28;20035;-88
2021/09/09 04:29:37;;;;;;;8.38;1.77;;;21.10;99.90;;;;;;4952172;28;20037;-87
2021/09/09 04:32:03;;;;;;;5.00;1.70;;;21.10;99.90;;;;;;4952682;28;20107;-87
2021/09/09 04:34:29;;;;;;;7.80;1.95;;;21.10;99.90;;;;;;4934758;28;20034;-87
2021/09/09 04:36:54;;;;;;;5.25;2.10;;;21.10;99.90;;;;;;4967192;28;20023;-88
2021/09/09 04:39:20;;;;;;;10.45;2.35;;;21.10;99.90;;;;;;4952285;28;20127;-88
2021/09/09 04:41:46;;;;;;;5.68;1.58;;;21.20;99.90;;;;;;4934687;28;20042;-88
2021/09/09 04:44:11;;;;;;;8.52;1.98;;;21.20;99.90;;;;;;4952721;28;20042;-88
2021/09/09 04:46:37;;;;;;;12.15;2.28;;;21.10;99.90;;;;;;4951901;28;20046;-88
2021/09/09 04:49:03;;;;;;;7.80;1.92;;;21.20;99.90;;;;;;4952384;28;20034;-88
2021/09/09 04:51:28;;;;;;;10.10;2.05;;;21.20;99.90;;;;;;4952151;28;20035;-88
2021/09/09 04:53:54;;;;;;;10.38;2.40;;;21.10;99.90;;;;;;4952182;28;20415;-87
2021/09/09 04:56:20;;;;;;;13.48;2.10;;;21.20;99.90;;;;;;4952071;28;20086;-87
2021/09/09 04:58:45;;;;;;;7.82;2.30;;;21.10;99.90;;;;;;4951891;28;20063;-87
2021/09/09 05:01:11;;;;;;;7.95;1.80;;;21.10;99.90;;;;;;4950710;28;20030;-87
2021/09/09 05:03:37;;;;;;;8.52;1.83;;;21.00;99.90;;;;;;4951803;28;20033;-87
2021/09/09 05:06:02;;;;;;;9.73;2.30;;;21.10;99.90;;;;;;4951832;28;20018;-87
2021/09/09 05:08:28;;;;;;;8.77;2.30;;;21.00;99.90;;;;;;4952062;28;20031;-88
2021/09/09 05:10:54;;;;;;;7.78;2.15;;;21.00;99.90;;;;;;4952110;28;20106;-87
2021/09/09 05:13:19;;;;;;;8.70;1.80;;;21.00;99.90;;;;;;4951844;28;20078;-87
2021/09/09 05:15:45;;;;;;;10.18;2.03;;;20.90;99.90;;;;;;4934414;29;20027;-87
2021/09/09 05:18:10;;;;;;;8.63;2.17;;;21.00;99.90;;;;;;4951856;28;20019;-88
2021/09/09 05:20:36;;;;;;;8.27;1.92;;;21.00;99.90;;;;;;4934385;29;20388;-89
2021/09/09 05:23:02;;;;;;;12.30;2.03;;;21.10;99.90;;;;;;4951791;28;20019;-89
2021/09/09 05:25:28;;;;;;;9.43;2.47;;;21.00;99.90;;;;;;4952080;28;20055;-89
2021/09/09 05:27:53;;;;;;;9.75;1.90;;;21.00;99.90;;;;;;4951527;28;20118;-89
2021/09/09 05:30:19;;;;;;;8.65;2.78;;;20.90;99.90;;;;;;4951659;28;20474;-92
2021/09/09 05:32:45;;;;;;;14.80;2.38;;;20.90;99.90;;;;;;4951952;28;20035;-90
2021/09/09 05:35:12;;;;;;;9.45;2.40;;;20.90;99.90;;;;;;4951541;28;20031;-89
2021/09/09 05:37:37;;;;;;;13.23;2.63;;;21.00;99.90;;;;;;4951780;28;20623;-89
2021/09/09 05:40:04;;;;;;;9.48;2.05;;;21.00;99.90;;;;;;4951479;28;20277;-89
2021/09/09 05:42:30;;;;;;;9.43;2.40;;;21.10;99.90;;;;;;4951449;28;20118;-89
2021/09/09 05:44:56;;;;;;;11.88;2.10;;;21.10;99.90;;;;;;4951423;28;20102;-89
2021/09/09 05:47:22;;;;;;;8.73;2.10;;;21.10;99.90;;;;;;4955732;28;20069;-89
2021/09/09 05:49:47;;;;;;;9.45;2.40;;;21.10;99.90;;;;;;4955320;28;20423;-88
2021/09/09 05:52:13;;;;;;;12.20;2.50;;;21.10;99.90;;;;;;4955431;28;20503;-88
2021/09/09 05:54:39;;;;;;;12.05;2.50;;;21.00;99.90;;;;;;4956123;28;20027;-87
2021/09/09 05:57:05;;;;;;;10.95;2.58;;;21.10;99.90;;;;;;4955404;28;20483;-86
2021/09/09 05:59:31;;;;;;;16.35;2.97;;;21.10;99.90;;;;;;4955466;28;20448;-87
2021/09/09 06:01:57;;;;;;;8.13;2.55;;;21.10;99.90;;;;;;4938001;28;20023;-87
2021/09/09 06:04:26;;;;;;;7.78;2.05;;;21.10;99.90;;;;;;4955511;28;20046;-86
2021/09/09 06:06:51;;;;;;;6.00;1.90;;;21.20;99.90;;;;;;4955629;28;20031;-86
2021/09/09 06:09:18;;;;;;;7.43;1.85;;;21.20;99.90;;;;;;4955421;28;20518;-92
2021/09/09 06:11:44;;;;;;;10.50;2.15;;;21.30;99.90;;;;;;4955791;28;20604;-92
2021/09/09 06:14:10;;;;;;;10.63;2.15;;;21.20;99.90;;;;;;4938134;28;20562;-94
2021/09/09 06:16:37;;;;;;;7.13;2.22;;;21.30;99.90;;;;;;4970251;28;20123;-90
2021/09/09 06:19:03;;;;;;;9.48;2.50;;;21.30;99.90;;;;;;4955780;28;20032;-94
2021/09/09 06:21:28;;;;;;;10.60;2.47;;;21.30;99.90;;;;;;4955276;28;20030;-93
2021/09/09 06:23:54;;;;;;;10.27;2.40;;;21.20;99.90;;;;;;4938693;29;20027;-93
2021/09/09 06:26:21;;;;;;;9.98;2.25;;;21.30;99.90;;;;;;4955689;28;20029;-92
2021/09/09 06:28:48;;;;;;;7.45;2.05;;;21.30;99.90;;;;;;4939045;29;20403;-95
2021/09/09 06:31:14;;;;;;;5.38;1.92;;;21.30;99.90;;;;;;4951204;28;20024;-90
2021/09/09 06:33:39;;;;;;;10.85;1.98;;;21.40;99.90;;;;;;4936524;29;20062;-90
2021/09/09 06:36:05;;;;;;;8.85;2.22;;;21.40;99.90;;;;;;4952972;28;20507;-90
2021/09/09 06:38:31;;;;;;;12.57;2.60;;;21.40;99.90;;;;;;4953912;28;20028;-90
2021/09/09 06:40:57;;;;;;;10.30;2.15;;;21.40;99.90;;;;;;4937398;29;20027;-90
2021/09/09 06:43:23;;;;;;;11.60;2.63;;;21.50;99.90;;;;;;4932091;29;20155;-90
2021/09/09 06:45:48;;;;;;;8.52;2.22;;;21.50;99.90;;;;;;4942335;28;20019;-91
2021/09/09 06:50:57;;;;;;;8.27;2.67;;;21.60;99.90;;;;;;4923151;29;20135;-90
2021/09/09 06:53:23;;;;;;;10.25;3.10;;;21.70;99.90;;;;;;4914237;29;20038;-91
2021/09/09 06:55:49;;;;;;;7.93;1.98;;;21.80;99.90;;;;;;4914255;29;20024;-90
2021/09/09 06:58:15;;;;;;;11.55;2.63;;;21.80;99.90;;;;;;4915196;29;20066;-91
2021/09/09 07:00:41;;;;;;;11.35;2.45;;;21.80;99.90;;;;;;4914649;29;20079;-90
2021/09/09 07:03:07;;;;;;;8.35;2.38;;;21.80;99.90;;;;;;4906799;29;20021;-89
2021/09/09 07:05:33;;;;;;;17.08;2.80;;;21.90;99.90;;;;;;4932524;29;20032;-90
2021/09/09 07:07:59;;;;;;;10.32;2.40;;;21.80;99.90;;;;;;4915748;29;20092;-91
2021/09/09 07:10:24;;;;;;;9.02;2.65;;;21.70;99.90;;;;;;4906867;29;20032;-90
2021/09/09 07:12:51;;;;;;;7.07;2.20;;;21.70;99.90;;;;;;4915711;29;20031;-90
2021/09/09 07:15:16;;;;;;;11.88;2.65;;;21.60;99.90;;;;;;4915628;29;20028;-90
2021/09/09 07:17:42;;;;;;;13.43;3.17;;;21.60;99.90;;;;;;4943599;29;20154;-90
2021/09/09 07:20:09;;;;;;;9.57;2.40;;;21.60;99.90;;;;;;4915957;29;20051;-90
2021/09/09 07:22:35;;;;;;;8.05;2.20;;;21.60;99.90;;;;;;4908663;29;20028;-90
2021/09/09 07:25:01;;;;;;;9.57;2.35;;;21.60;99.90;;;;;;4915611;29;20023;-90
2021/09/09 07:27:26;;;;;;;7.82;2.47;;;21.70;99.90;;;;;;4927057;29;20496;-90
2021/09/09 07:29:52;;;;;;;10.60;2.65;;;21.80;99.90;;;;;;4916988;29;20107;-90
2021/09/09 07:32:18;;;;;;;8.05;2.20;;;21.70;99.90;;;;;;4915555;29;20088;-90
2021/09/09 07:34:44;;;;;;;9.18;2.05;;;21.80;99.90;;;;;;4915225;29;20537;-90
2021/09/09 07:37:09;;;;;;;8.65;2.50;;;21.80;99.90;;;;;;4915443;29;20024;-91
2021/09/09 07:39:35;;;;;;;9.20;2.75;;;21.90;99.90;;;;;;4915194;29;20374;-93
2021/09/09 07:42:01;;;;;;;12.80;3.65;;;22.00;99.90;;;;;;4915148;29;20377;-90
2021/09/09 07:44:26;;;;;;;11.52;2.47;;;22.00;99.90;;;;;;4906470;29;20032;-90
2021/09/09 07:46:52;;;;;;;8.50;2.70;;;22.10;99.90;;;;;;4914896;29;20036;-90
2021/09/09 07:49:18;;;;;;;7.93;2.10;;;22.10;99.90;;;;;;4904623;29;20539;-90
2021/09/09 07:51:45;;;;;;;8.10;2.00;;;22.00;99.90;;;;;;4898059;29;20035;-90
2021/09/09 07:54:11;;;;;;;10.00;1.88;;;22.00;99.90;;;;;;4915282;29;20024;-92
2021/09/09 07:56:37;;;;;;;11.73;2.30;;;21.90;99.90;;;;;;4915117;29;20031;-91
2021/09/09 07:59:03;;;;;;;9.80;2.58;;;22.00;99.90;;;;;;4915155;29;20411;-91
2021/09/09 08:01:29;;;;;;;12.10;2.40;;;22.10;99.90;;;;;;4914770;29;20020;-90
2021/09/09 08:03:54;;;;;;;9.90;2.17;;;22.20;99.90;;;;;;4914951;29;20035;-95
2021/09/09 08:06:20;;;;;;;9.52;2.20;;;22.10;99.90;;;;;;4907221;29;20023;-91
2021/09/09 08:08:46;;;;;;;10.77;2.40;;;22.30;99.90;;;;;;4921240;29;20043;-90
2021/09/09 08:11:12;;;;;;;9.02;2.13;;;22.30;99.90;;;;;;4927904;29;20026;-90
2021/09/09 08:13:38;;;;;;;10.90;2.35;;;22.40;99.90;;;;;;4914787;29;20516;-91
2021/09/09 08:16:05;;;;;;;9.05;2.17;;;22.40;99.90;;;;;;4914688;29;20035;-90
2021/09/09 08:18:31;;;;;;;10.48;2.15;;;22.40;99.90;;;;;;4913085;29;20036;-90
2021/09/09 08:20:57;;;;;;;7.80;2.40;;;22.30;99.90;;;;;;4908300;29;20167;-90
2021/09/09 08:23:23;;;;;;;13.13;2.42;;;22.20;99.90;;;;;;4914472;29;20326;-90
2021/09/09 08:25:50;;;;;;;9.70;1.90;;;22.20;99.90;;;;;;4913386;29;20207;-90
2021/09/09 08:28:17;;;;;;;9.35;2.63;;;22.40;99.90;;;;;;4915476;29;20035;-90
2021/09/09 08:30:44;;;;;;;10.77;2.00;;;22.60;99.90;;;;;;4922668;29;20477;-90
2021/09/09 08:33:10;;;;;;;9.63;2.22;;;22.50;99.90;;;;;;4910586;29;20028;-90
2021/09/09 08:35:36;;;;;;;10.15;2.38;;;22.40;99.90;;;;;;4914333;29;20031;-90
2021/09/09 08:38:01;;;;;;;10.95;1.90;;;22.60;99.90;;;;;;4908520;29;20024;-91
2021/09/09 08:40:27;;;;;;;7.18;2.10;;;22.70;99.90;;;;;;4928902;29;20471;-90
2021/09/09 08:42:53;;;;;;;10.00;2.25;;;22.90;99.90;;;;;;4928737;29;20465;-90
2021/09/09 08:45:19;;;;;;;14.13;2.15;;;23.00;99.90;;;;;;4914148;29;20194;-95
2021/09/09 08:47:49;;;;;;;8.68;2.10;;;23.10;99.90;;;;;;4914070;29;20089;-91
2021/09/09 08:50:16;;;;;;;9.85;2.17;;;23.20;99.90;;;;;;4914047;29;20091;-93
2021/09/09 08:52:42;;;;;;;10.48;2.30;;;23.10;99.90;;;;;;4903648;29;20057;-90
2021/09/09 08:55:09;;;;;;;12.85;3.17;;;23.10;99.90;;;;;;4913889;29;20028;-90
2021/09/09 08:57:34;;;;;;;8.27;1.80;;;23.20;99.90;;;;;;4901537;29;20032;-90
2021/09/09 09:00:00;;;;;;;9.68;1.90;;;23.10;99.90;;;;;;4913766;29;20028;-90
2021/09/09 09:02:26;;;;;;;9.68;2.53;;;23.10;99.90;;;;;;4913855;29;20103;-90
2021/09/09 09:05:02;;;;;;;8.63;2.00;;;23.20;99.90;;;;;;4913900;29;20111;-90
2021/09/09 09:07:32;;;;;;;14.90;2.78;;;23.20;99.90;;;;;;4913677;29;20028;-90
2021/09/09 09:10:06;;;;;;;10.15;2.83;;;23.40;99.90;;;;;;4913867;29;20027;-90
2021/09/09 09:12:43;;;;;;;;;;;23.60;99.90;;;;;;4927884;29;20028;-90
2021/09/09 09:15:19;;;;;;;5.90;1.85;;;23.60;99.90;;;;;;4922288;29;19907;-90
2021/09/09 09:17:58;;;;;;;8.27;2.30;;;23.70;99.90;;;;;;4931494;29;20024;-90
2021/09/09 09:20:25;;;;;;;10.75;2.95;;;23.90;99.90;;;;;;4916525;29;20032;-91
2021/09/09 09:22:53;;;;;;;9.30;2.72;;;24.00;99.90;;;;;;4916464;29;20031;-90
2021/09/09 09:25:19;;;;;;;11.93;2.90;;;23.90;99.90;;;;;;4905874;29;20025;-90
2021/09/09 09:27:47;;;;;;;9.88;2.22;;;23.50;99.90;;;;;;4917733;29;20099;-90
2021/09/09 09:30:13;;;;;;;14.23;2.80;;;23.70;99.90;;;;;;4918089;29;20027;-90
2021/09/09 09:32:47;;;;;;;5.72;2.40;;;24.00;99.90;;;;;;4930394;29;20555;-90
2021/09/09 09:35:21;;;;;;;11.40;2.72;;;24.00;99.90;;;;;;4929594;29;20063;-90
2021/09/09 09:37:55;;;;;;;5.85;2.13;;;23.80;99.90;;;;;;4900455;29;20075;-90
2021/09/09 09:40:33;;;;;;;16.63;4.10;;;23.60;99.90;;;;;;4903773;29;20043;-90
2021/09/09 09:43:08;;;;;;;12.48;3.15;;;23.30;99.90;;;;;;4917478;29;20119;-90
2021/09/09 09:45:34;;;;;;;13.52;3.03;;;23.10;99.90;;;;;;4924533;29;20102;-90
2021/09/09 09:48:00;;;;;;;11.65;3.55;;;23.50;99.90;;;;;;4923161;29;20135;-90
2021/09/09 09:50:26;;;;;;;9.18;2.90;;;23.50;99.90;;;;;;4917013;29;20048;-90
2021/09/09 09:53:16;;;;;;;15.77;3.80;;;23.40;99.90;;;;;;4917126;29;20107;-90
2021/09/09 09:55:43;;;;;;;15.07;3.38;;;23.40;99.90;;;;;;4903615;29;20074;-90
2021/09/09 09:58:09;;;;;;;13.23;3.22;;;23.40;99.90;;;;;;4912853;29;20095;-90
2021/09/09 10:00:36;;;;;;;11.18;3.65;;;23.40;99.90;;;;;;4917887;29;20036;-90
2021/09/09 10:03:02;;;;;;;11.40;3.13;;;23.30;99.90;;;;;;4899766;29;20465;-90
2021/09/09 10:05:35;;;;;;;13.73;3.45;;;23.50;99.90;;;;;;4916793;29;20024;-90
2021/09/09 10:08:01;;;;;;;10.15;3.15;;;23.70;99.90;;;;;;4916867;29;20067;-91
2021/09/09 10:10:28;;;;;;;14.10;3.10;;;24.10;99.90;;;;;;4916930;29;20066;-90
2021/09/09 10:12:53;;;;;;;15.52;3.45;;;24.40;99.90;;;;;;4916595;29;20024;-90
2021/09/09 10:15:23;;;;;;;14.77;4.00;;;24.30;99.90;;;;;;4916875;29;20088;-91
2021/09/09 10:17:50;;;;;;;12.68;3.60;;;24.40;99.90;;;;;;4916768;29;20024;-90
2021/09/09 10:20:39;;;;;;;12.70;3.08;;;24.20;99.90;;;;;;4916932;29;20111;-90
2021/09/09 10:23:11;;;;;;;13.63;3.53;;;24.20;99.90;;;;;;4920706;29;20020;-90
2021/09/09 10:25:53;;;;;;;13.15;3.20;;;24.00;99.90;;;;;;4939803;29;20456;-91
2021/09/09 10:31:13;;;;;;;12.43;3.60;;;24.30;99.90;;;;;;4914101;29;20047;-90
2021/09/09 10:33:46;;;;;;;15.55;3.58;;;24.20;99.90;;;;;;4916591;29;20115;-89
2021/09/09 10:36:39;;;;;;;12.38;3.40;;;24.10;99.90;;;;;;4917678;29;20020;-89
2021/09/09 10:39:09;;;;;;;10.98;3.88;;;23.80;99.90;;;;;;4925062;29;20016;-88
2021/09/09 10:41:36;;;;;;;13.57;3.60;;;23.70;99.90;;;;;;4917190;29;20056;-88
2021/09/09 10:44:04;;;;;;;15.20;3.88;;;23.70;99.90;;;;;;4916802;29;20016;-87
2021/09/09 10:46:36;;;;;;;8.13;2.95;;;24.00;99.90;;;;;;4917206;29;20036;-86
2021/09/09 10:49:15;;;;;;;8.13;2.97;;;24.00;99.90;;;;;;4924931;29;20493;-86
2021/09/09 10:52:14;;;;;;;12.52;3.65;;;23.70;99.90;;;;;;4931084;29;20492;-86
2021/09/09 10:55:10;;;;;;;12.85;3.38;;;23.60;99.90;;;;;;4877918;29;20035;-87
2021/09/09 10:57:36;;;;;;;13.65;3.83;;;23.40;99.90;;;;;;4916975;29;20016;-87
2021/09/09 11:00:04;;;;;;;11.63;3.38;;;23.40;99.90;;;;;;4915389;29;20071;-86
2021/09/09 11:02:32;;;;;;;14.57;3.47;;;23.60;99.90;;;;;;4916161;29;20571;-88
2021/09/09 11:05:05;;;;;;;12.57;3.63;;;23.80;99.90;;;;;;4916293;29;20028;-87
2021/09/09 11:07:32;;;;;;;11.38;3.58;;;23.90;99.90;;;;;;4916366;29;20043;-87
2021/09/09 11:10:06;;;;;;;10.65;3.08;;;23.80;99.90;;;;;;4923255;29;20015;-85
2021/09/09 11:12:39;;;;;;;12.48;3.95;;;23.90;99.90;;;;;;4942336;29;20023;-87
2021/09/09 11:15:13;;;;;;;13.43;3.00;;;23.90;99.90;;;;;;4940319;29;20028;-86
2021/09/09 11:17:39;;;;;;;12.50;3.05;;;24.00;99.90;;;;;;4943184;29;20488;-87
2021/09/09 11:20:08;;;;;;;14.02;3.00;;;24.00;99.90;;;;;;4916290;29;20024;-86
2021/09/09 11:22:34;;;;;;;11.38;3.08;;;23.70;99.90;;;;;;4916356;29;20027;-86
2021/09/09 11:25:00;;;;;;;11.43;3.10;;;23.50;99.90;;;;;;4924555;29;20034;-87
2021/09/09 11:27:32;;;;;;;11.07;3.33;;;23.50;99.90;;;;;;4954001;29;20031;-87
2021/09/09 11:30:00;;;;;;;10.18;3.08;;;23.60;99.90;;;;;;4953581;29;20147;-86
2021/09/09 11:32:27;;;;;;;15.18;3.63;;;23.50;99.90;;;;;;4953676;29;20042;-86
2021/09/09 11:35:10;;;;;;;14.27;4.13;;;23.50;99.90;;;;;;4921490;29;20020;-81
2021/09/09 11:37:46;;;;;;;12.20;3.90;;;23.50;99.90;;;;;;4909180;29;20180;-83
2021/09/09 11:40:14;;;;;;;15.77;3.88;;;23.50;99.90;;;;;;4915851;29;20185;-83
2021/09/09 11:42:40;;;;;;;12.45;3.78;;;23.50;99.90;;;;;;4942650;28;20027;-83
2021/09/09 11:45:06;;;;;;;13.55;3.13;;;23.60;99.90;;;;;;4952467;29;20202;-83
2021/09/09 11:47:32;;;;;;;16.70;4.05;;;23.90;99.90;;;;;;4926537;29;20420;-82
2021/09/09 11:50:06;;;;;;;12.95;4.00;;;23.90;99.90;;;;;;4914945;29;20048;-83
2021/09/09 11:52:32;;;;;;;;;;;23.80;99.90;;;;;;4915258;29;20024;-83
2021/09/09 11:55:07;;;;;;;10.73;3.28;;;24.00;99.90;;;;;;4914883;29;19908;-83
2021/09/09 11:57:39;;;;;;;11.43;3.20;;;24.40;99.90;;;;;;4914805;29;20036;-82
2021/09/09 12:00:06;;;;;;;16.77;3.13;;;24.60;99.90;;;;;;4914715;29;20024;-83
2021/09/09 12:02:32;;;;;;;12.70;3.35;;;24.70;99.90;;;;;;4927670;29;20508;-83
2021/09/09 12:05:07;;;;;;;12.73;3.20;;;24.80;99.90;;;;;;4914670;29;20484;-83
2021/09/09 12:07:33;;;;;;;11.73;3.78;;;24.60;99.90;;;;;;4914339;29;20028;-82
2021/09/09 12:10:10;;;;;;;9.40;3.08;;;24.80;99.90;;;;;;4914778;29;20035;-83
2021/09/09 12:12:36;;;;;;;13.35;4.00;;;24.80;99.90;;;;;;4914223;29;20024;-82
2021/09/09 12:15:09;;;;;;;10.25;3.10;;;24.80;99.90;;;;;;4914034;29;20099;-83
2021/09/09 12:17:39;;;;;;;14.27;3.65;;;25.10;99.90;;;;;;4944140;29;20541;-82
2021/09/09 12:20:06;;;;;;;12.10;3.60;;;24.80;99.90;;;;;;4952529;29;20034;-81
2021/09/09 12:23:00;;;;;;;12.82;3.42;;;24.50;99.90;;;;;;4951039;29;20404;-82
2021/09/09 12:25:28;;;;;;;12.35;3.47;;;24.30;99.90;;;;;;4949191;29;20031;-82
2021/09/09 12:28:07;;;;;;;11.00;3.67;;;24.10;99.90;;;;;;4952544;29;20134;-81
2021/09/09 12:30:38;;;;;;;11.00;3.97;;;24.30;99.90;;;;;;4952185;29;20027;-82
2021/09/09 12:33:14;;;;;;;14.20;3.88;;;24.20;99.90;;;;;;4944213;29;20056;-82
2021/09/09 12:35:58;;;;;;;13.68;3.75;;;24.10;99.90;;;;;;4913928;29;20307;-83
2021/09/09 12:38:33;;;;;;;9.77;3.28;;;24.20;99.90;;;;;;4913691;29;20036;-83
2021/09/09 12:40:58;;;;;;;11.25;3.15;;;24.60;99.90;;;;;;4914284;29;20092;-84
2021/09/09 12:43:25;;;;;;;12.10;3.17;;;24.80;99.90;;;;;;4914353;29;20415;-84
2021/09/09 12:45:52;;;;;;;11.07;3.45;;;25.00;99.90;;;;;;4914087;29;20034;-83
2021/09/09 12:48:18;;;;;;;11.80;3.13;;;24.60;99.90;;;;;;4913715;29;20035;-83
2021/09/09 12:50:59;;;;;;;14.68;3.38;;;24.50;99.90;;;;;;4913540;29;20135;-83